Time;durP1;ratioP1;P1;durP2;ratioP2;P2;SDS_P1;SDS_P2;PMS_P1;PMS_P2;Temp;Humidity;BMP_temperature;BMP_pressure;BME280_temperature;BME280_humidity;BME280_pressure;Samples;Min_cycle;Max_cycle;Signal;HPM_P1;HPM_P2
2021/12/28 00:01:53;;;;;;;1.20;0.80;;;23.60;50.50;;;;;;5013361;28;20668;-43
2021/12/28 00:04:23;;;;;;;1.52;0.90;;;23.60;50.50;;;;;;5013317;28;20635;-45
2021/12/28 00:06:54;;;;;;;1.15;0.60;;;23.60;50.50;;;;;;5013355;28;20280;-41
2021/12/28 00:09:24;;;;;;;1.02;0.73;;;23.60;50.40;;;;;;5024426;23;20315;-52
2021/12/28 00:11:57;;;;;;;0.82;0.82;;;23.60;50.40;;;;;;5012231;28;20639;-53
2021/12/28 00:14:34;;;;;;;1.20;0.70;;;23.60;50.50;;;;;;5013353;28;20295;-58
2021/12/28 00:20:00;;;;;;;1.70;0.90;;;23.70;50.40;;;;;;4977530;28;20383;-53
2021/12/28 00:22:31;;;;;;;1.33;0.80;;;23.70;50.40;;;;;;5013299;28;20201;-59
2021/12/28 00:25:04;;;;;;;0.98;0.73;;;23.70;50.30;;;;;;5007592;28;20638;-49
2021/12/28 00:27:36;;;;;;;1.20;0.70;;;23.70;50.30;;;;;;5012800;28;20193;-55
2021/12/28 00:30:08;;;;;;;0.90;0.77;;;23.70;50.30;;;;;;5012310;28;20256;-51
2021/12/28 00:32:38;;;;;;;0.98;0.60;;;23.70;50.30;;;;;;5004812;28;20281;-56
2021/12/28 00:35:10;;;;;;;1.00;0.75;;;23.70;50.30;;;;;;4993404;28;20332;-49
2021/12/28 00:37:40;;;;;;;1.40;0.60;;;23.70;50.30;;;;;;4993370;28;20193;-54
2021/12/28 00:40:11;;;;;;;0.75;0.70;;;23.70;50.30;;;;;;4995090;28;20256;-56
2021/12/28 00:42:44;;;;;;;0.70;0.70;;;23.70;50.30;;;;;;5012570;28;20321;-46
2021/12/28 00:45:15;;;;;;;1.52;1.00;;;23.70;50.30;;;;;;4981845;28;20277;-46
2021/12/28 00:47:46;;;;;;;1.67;0.70;;;23.70;50.30;;;;;;4973844;28;20230;-53
2021/12/28 00:50:18;;;;;;;1.65;0.70;;;23.70;50.30;;;;;;4973150;28;20642;-40
2021/12/28 00:52:48;;;;;;;0.68;0.60;;;23.70;50.30;;;;;;4973053;28;20281;-55
2021/12/28 00:55:21;;;;;;;1.20;0.88;;;23.60;50.30;;;;;;4985900;28;20361;-56
2021/12/28 00:57:53;;;;;;;0.70;0.50;;;23.70;50.40;;;;;;5012031;28;20287;-54
2021/12/28 01:00:26;;;;;;;1.35;0.88;;;23.70;50.30;;;;;;5011633;28;20232;-49
2021/12/28 01:02:57;;;;;;;0.93;0.70;;;23.60;50.30;;;;;;5011664;28;20243;-55
2021/12/28 01:05:29;;;;;;;1.05;0.90;;;23.70;50.30;;;;;;5012310;28;20284;-44
2021/12/28 01:08:00;;;;;;;0.52;0.52;;;23.70;50.30;;;;;;5012762;28;20239;-58
2021/12/28 01:10:34;;;;;;;0.77;0.50;;;23.70;50.30;;;;;;5011574;28;20216;-47
2021/12/28 01:13:08;;;;;;;0.85;0.70;;;23.70;50.20;;;;;;5009574;28;20200;-58
2021/12/28 01:15:38;;;;;;;0.82;0.70;;;23.70;50.20;;;;;;4988805;28;20598;-37
2021/12/28 01:18:09;;;;;;;1.70;1.17;;;23.70;50.20;;;;;;4987323;28;20670;-37
2021/12/28 01:20:40;;;;;;;3.58;1.67;;;23.60;50.20;;;;;;4990860;28;20705;-37
2021/12/28 01:23:11;;;;;;;4.63;1.98;;;23.60;50.40;;;;;;4989760;28;20224;-37
2021/12/28 01:25:42;;;;;;;2.88;2.05;;;23.70;51.00;;;;;;4987258;28;20657;-37
2021/12/28 01:28:15;;;;;;;3.97;2.08;;;23.60;51.30;;;;;;4990091;28;20229;-37
2021/12/28 01:30:46;;;;;;;3.08;2.00;;;23.60;51.50;;;;;;4989587;28;20240;-41
2021/12/28 01:33:16;;;;;;;3.58;2.10;;;23.60;51.50;;;;;;4989802;28;20248;-45
2021/12/28 01:35:50;;;;;;;7.95;2.70;;;23.60;51.60;;;;;;4988987;28;20715;-54
2021/12/28 01:38:21;;;;;;;5.38;2.28;;;23.60;51.80;;;;;;4989921;28;20582;-56
2021/12/28 01:40:53;;;;;;;4.10;2.10;;;23.60;52.00;;;;;;4989871;28;20228;-41
2021/12/28 01:43:26;;;;;;;4.88;1.98;;;23.60;52.10;;;;;;4988183;28;20275;-44
2021/12/28 01:45:59;;;;;;;3.35;2.17;;;23.60;52.30;;;;;;4989675;28;20198;-49
2021/12/28 01:48:32;;;;;;;3.42;2.28;;;23.50;52.30;;;;;;4990090;28;20206;-46
2021/12/28 01:51:05;;;;;;;4.22;1.95;;;23.50;52.20;;;;;;4988704;28;20202;-56
2021/12/28 01:53:36;;;;;;;5.03;2.00;;;23.50;52.10;;;;;;4988326;28;20320;-56
2021/12/28 01:56:09;;;;;;;3.95;1.90;;;23.50;52.20;;;;;;4990155;28;20202;-48
2021/12/28 01:58:42;;;;;;;5.22;1.98;;;23.50;52.30;;;;;;4987758;28;20559;-46
2021/12/28 02:01:13;;;;;;;2.83;1.60;;;23.50;52.30;;;;;;4989719;28;20245;-54
2021/12/28 02:03:45;;;;;;;3.47;1.70;;;23.60;52.50;;;;;;4989211;28;20202;-56
2021/12/28 02:06:17;;;;;;;4.13;2.55;;;23.50;52.50;;;;;;4989048;28;20208;-58
2021/12/28 02:08:48;;;;;;;3.50;2.05;;;23.50;52.60;;;;;;4990042;28;20588;-46
2021/12/28 02:11:18;;;;;;;3.10;2.25;;;23.50;52.50;;;;;;4989307;28;20208;-50
2021/12/28 02:13:51;;;;;;;3.17;1.75;;;23.40;52.50;;;;;;4989658;28;20205;-48
2021/12/28 02:16:22;;;;;;;3.47;1.80;;;23.50;52.50;;;;;;4989381;28;20201;-49
2021/12/28 02:18:52;;;;;;;3.20;1.67;;;23.40;52.50;;;;;;4987932;28;20224;-49
2021/12/28 02:21:25;;;;;;;3.20;1.58;;;23.40;52.50;;;;;;4988863;28;20217;-45
2021/12/28 02:23:56;;;;;;;4.03;1.90;;;23.50;52.60;;;;;;4988947;28;20201;-51
2021/12/28 02:26:27;;;;;;;4.32;2.03;;;23.40;53.30;;;;;;4987761;28;20205;-52
2021/12/28 02:28:57;;;;;;;3.80;1.90;;;23.40;52.60;;;;;;4988107;28;20263;-42
2021/12/28 02:31:32;;;;;;;3.63;1.70;;;23.40;52.60;;;;;;4988763;28;20653;-50
2021/12/28 02:34:05;;;;;;;2.65;1.50;;;23.40;52.60;;;;;;4989379;28;20535;-56
2021/12/28 02:36:38;;;;;;;2.55;1.45;;;23.40;52.60;;;;;;4988203;28;20256;-45
2021/12/28 02:39:08;;;;;;;1.80;1.40;;;23.40;52.50;;;;;;4988860;28;20223;-51
2021/12/28 02:41:39;;;;;;;4.72;1.55;;;23.40;52.50;;;;;;4988789;28;20229;-45
2021/12/28 02:44:10;;;;;;;2.53;1.40;;;23.40;52.60;;;;;;4988920;28;20665;-54
2021/12/28 02:46:40;;;;;;;3.00;1.40;;;23.40;52.60;;;;;;4986265;28;20197;-52
2021/12/28 02:49:11;;;;;;;2.25;1.27;;;23.40;52.60;;;;;;4987012;28;20308;-52
2021/12/28 02:51:43;;;;;;;3.35;1.38;;;23.40;52.60;;;;;;4988178;28;20211;-39
2021/12/28 02:54:14;;;;;;;3.22;1.70;;;23.40;52.70;;;;;;4988082;28;20197;-41
2021/12/28 02:56:45;;;;;;;3.75;2.10;;;23.40;52.70;;;;;;4988491;28;20206;-52
2021/12/28 02:59:15;;;;;;;3.88;1.60;;;23.40;52.70;;;;;;4987369;28;20705;-51
2021/12/28 03:01:46;;;;;;;2.20;1.50;;;23.40;52.70;;;;;;4988329;28;20292;-50
2021/12/28 03:04:16;;;;;;;2.65;1.70;;;23.30;52.80;;;;;;4988833;28;20198;-49
2021/12/28 03:06:49;;;;;;;2.15;1.42;;;23.40;52.70;;;;;;4989520;28;20280;-53
2021/12/28 03:09:21;;;;;;;2.80;1.88;;;23.30;52.60;;;;;;4988965;28;20721;-58
2021/12/28 03:11:51;;;;;;;2.95;1.90;;;23.30;52.60;;;;;;4987246;28;20201;-51
2021/12/28 03:14:22;;;;;;;4.47;2.72;;;23.30;52.60;;;;;;4987001;28;20193;-52
2021/12/28 03:16:52;;;;;;;11.95;7.72;;;23.30;52.80;;;;;;4988065;28;20198;-50
2021/12/28 03:19:23;;;;;;;10.63;7.38;;;23.30;52.90;;;;;;4985764;28;20260;-58
2021/12/28 03:21:55;;;;;;;14.23;9.70;;;23.30;52.90;;;;;;4987359;28;20309;-52
2021/12/28 03:24:26;;;;;;;15.00;10.85;;;23.30;52.80;;;;;;4987809;28;20202;-52
2021/12/28 03:26:57;;;;;;;11.90;9.80;;;23.30;52.80;;;;;;4988097;28;20237;-47
2021/12/28 03:29:28;;;;;;;15.30;11.20;;;23.30;52.80;;;;;;4987546;28;20260;-49
2021/12/28 03:31:58;;;;;;;14.15;10.38;;;23.30;52.80;;;;;;4987774;28;20669;-48
2021/12/28 03:34:29;;;;;;;13.45;9.80;;;23.30;52.60;;;;;;4987522;28;20288;-51
2021/12/28 03:37:01;;;;;;;14.20;10.27;;;23.30;52.60;;;;;;4988181;28;20193;-39
2021/12/28 03:39:32;;;;;;;12.20;10.07;;;23.30;52.60;;;;;;4987768;28;20217;-52
2021/12/28 03:42:03;;;;;;;13.88;9.80;;;23.30;52.60;;;;;;4987418;28;20721;-49
2021/12/28 03:44:33;;;;;;;13.88;10.90;;;23.30;52.60;;;;;;4987906;28;20215;-43
2021/12/28 03:47:06;;;;;;;13.75;10.65;;;23.30;52.60;;;;;;4986367;28;20916;-47
2021/12/28 03:49:37;;;;;;;14.75;10.93;;;23.30;52.50;;;;;;4984731;28;20221;-52
2021/12/28 03:52:10;;;;;;;14.18;11.07;;;23.20;52.40;;;;;;4987341;28;20206;-46
2021/12/28 03:54:40;;;;;;;13.43;10.10;;;23.20;52.30;;;;;;4987119;28;20201;-54
2021/12/28 03:57:11;;;;;;;11.82;9.57;;;23.30;52.40;;;;;;4987141;28;20237;-50
2021/12/28 03:59:42;;;;;;;11.55;9.68;;;23.20;52.30;;;;;;4987657;28;20240;-51
2021/12/28 04:02:12;;;;;;;12.35;9.27;;;23.30;52.30;;;;;;4987328;28;20210;-44
2021/12/28 04:04:43;;;;;;;11.52;8.65;;;23.20;52.20;;;;;;4987006;28;20276;-40
2021/12/28 04:07:19;;;;;;;11.10;9.15;;;23.30;52.20;;;;;;4987586;28;20233;-48
2021/12/28 04:10:01;;;;;;;12.65;8.55;;;23.20;52.10;;;;;;4987986;28;20229;-55
2021/12/28 04:12:32;;;;;;;11.50;8.32;;;23.20;52.20;;;;;;4987611;28;20201;-46
2021/12/28 04:15:03;;;;;;;9.57;8.50;;;23.20;52.10;;;;;;4987756;28;20281;-47
2021/12/28 04:17:37;;;;;;;10.02;8.05;;;23.20;52.10;;;;;;4988216;28;20240;-47
2021/12/28 04:20:10;;;;;;;10.15;8.43;;;23.20;52.10;;;;;;4978568;28;20222;-50
2021/12/28 04:22:43;;;;;;;9.95;7.97;;;23.20;52.10;;;;;;4989871;28;20198;-50
2021/12/28 04:25:14;;;;;;;9.55;7.95;;;23.20;52.30;;;;;;4990444;28;20284;-49
2021/12/28 04:27:45;;;;;;;9.90;7.63;;;23.20;52.30;;;;;;4991461;28;20197;-45
2021/12/28 04:30:17;;;;;;;9.10;7.05;;;23.20;52.20;;;;;;4991236;28;21530;-49
2021/12/28 04:32:48;;;;;;;8.75;7.38;;;23.20;52.30;;;;;;4991980;28;20709;-52
2021/12/28 04:35:19;;;;;;;9.60;7.38;;;23.20;52.30;;;;;;4990431;28;20292;-49
2021/12/28 04:37:51;;;;;;;9.38;7.63;;;23.20;52.30;;;;;;4990616;28;20288;-56
2021/12/28 04:40:22;;;;;;;7.82;6.35;;;23.20;52.20;;;;;;4990610;28;20312;-54
2021/12/28 04:42:52;;;;;;;7.88;6.75;;;23.20;52.20;;;;;;4991086;28;20201;-59
2021/12/28 04:45:23;;;;;;;9.93;6.97;;;23.10;52.10;;;;;;4991148;28;20233;-59
2021/12/28 04:47:53;;;;;;;7.82;6.72;;;23.10;52.10;;;;;;4990395;28;20277;-51
2021/12/28 04:50:24;;;;;;;8.18;6.78;;;23.10;52.10;;;;;;4991058;28;20355;-57
2021/12/28 04:52:57;;;;;;;8.80;6.95;;;23.10;52.10;;;;;;4988905;28;20229;-56
2021/12/28 04:55:28;;;;;;;8.25;6.90;;;23.10;52.00;;;;;;4990757;28;20201;-59
2021/12/28 04:57:58;;;;;;;6.95;6.25;;;23.10;52.00;;;;;;4990662;28;20281;-55
2021/12/28 05:00:29;;;;;;;8.07;6.80;;;23.10;52.00;;;;;;4990719;28;20316;-56
2021/12/28 05:03:00;;;;;;;8.35;6.38;;;23.10;51.90;;;;;;4991592;28;20709;-43
2021/12/28 05:05:31;;;;;;;7.15;6.15;;;23.10;51.90;;;;;;4989910;28;20273;-55
2021/12/28 05:08:06;;;;;;;9.75;6.07;;;23.10;51.90;;;;;;4990158;28;20310;-46
2021/12/28 05:10:37;;;;;;;8.20;6.70;;;23.10;51.90;;;;;;4989767;28;20611;-47
2021/12/28 05:13:07;;;;;;;8.90;6.25;;;23.10;51.90;;;;;;4989649;28;20280;-53
2021/12/28 05:15:38;;;;;;;6.65;5.90;;;23.10;51.90;;;;;;4989634;28;20284;-37
2021/12/28 05:18:09;;;;;;;6.80;5.75;;;23.10;51.90;;;;;;4990346;28;20717;-38
2021/12/28 05:20:39;;;;;;;8.15;5.68;;;23.00;51.90;;;;;;4990423;28;20311;-52
2021/12/28 05:23:12;;;;;;;7.35;5.85;;;23.00;51.90;;;;;;4990818;28;20212;-55
2021/12/28 05:25:43;;;;;;;6.65;5.80;;;23.00;51.90;;;;;;4988730;28;20309;-56
2021/12/28 05:28:13;;;;;;;7.47;6.03;;;23.00;51.90;;;;;;4990144;28;20292;-56
2021/12/28 05:30:44;;;;;;;4.82;4.32;;;23.00;51.90;;;;;;4990627;28;20292;-53
2021/12/28 05:33:14;;;;;;;5.72;4.45;;;23.00;52.00;;;;;;4988077;28;20326;-43
2021/12/28 05:35:45;;;;;;;6.15;4.50;;;23.00;52.20;;;;;;4990349;28;20257;-55
2021/12/28 05:38:17;;;;;;;6.15;4.63;;;23.00;52.00;;;;;;4990679;28;20231;-55
2021/12/28 05:40:48;;;;;;;5.05;4.53;;;23.00;52.10;;;;;;4989675;28;20308;-48
2021/12/28 05:43:18;;;;;;;5.07;4.38;;;23.00;52.10;;;;;;4988813;28;20976;-47
2021/12/28 05:45:49;;;;;;;5.70;4.97;;;22.90;52.00;;;;;;4989678;28;20280;-51
2021/12/28 05:48:19;;;;;;;5.88;4.90;;;22.90;51.90;;;;;;4989813;28;20405;-44
2021/12/28 05:50:50;;;;;;;5.18;4.43;;;23.00;52.00;;;;;;4989154;28;20289;-42
2021/12/28 05:53:22;;;;;;;5.05;4.55;;;22.90;51.80;;;;;;4988675;28;20284;-56
2021/12/28 05:55:52;;;;;;;6.10;4.90;;;22.90;51.90;;;;;;4989546;28;20288;-46
2021/12/28 05:58:23;;;;;;;5.20;4.00;;;22.90;51.90;;;;;;4989415;28;20216;-45
2021/12/28 06:00:53;;;;;;;5.68;4.57;;;22.90;51.80;;;;;;4989053;28;20326;-50
2021/12/28 06:03:24;;;;;;;5.15;4.43;;;22.90;51.80;;;;;;4988953;28;20717;-49
2021/12/28 06:05:54;;;;;;;6.22;4.40;;;22.90;51.80;;;;;;4988885;28;20561;-52
2021/12/28 06:08:27;;;;;;;5.30;4.07;;;22.90;51.90;;;;;;4989786;28;20324;-52
2021/12/28 06:10:58;;;;;;;5.63;4.00;;;22.80;51.90;;;;;;4990101;28;20197;-50
2021/12/28 06:13:28;;;;;;;5.57;4.72;;;22.90;51.90;;;;;;4989995;28;20280;-46
2021/12/28 06:15:59;;;;;;;5.40;4.13;;;22.80;51.90;;;;;;4988381;28;20197;-53
2021/12/28 06:18:29;;;;;;;4.80;3.95;;;22.80;51.90;;;;;;4989316;28;20293;-47
2021/12/28 06:21:00;;;;;;;4.38;3.75;;;22.80;52.50;;;;;;4988515;28;20301;-50
2021/12/28 06:23:32;;;;;;;4.43;4.00;;;22.80;51.90;;;;;;4986882;28;20248;-45
2021/12/28 06:26:03;;;;;;;5.57;4.05;;;22.80;51.90;;;;;;4990010;28;20296;-50
2021/12/28 06:28:33;;;;;;;4.95;3.95;;;22.80;51.80;;;;;;4989262;28;20292;-50
2021/12/28 06:31:04;;;;;;;4.75;3.50;;;22.80;52.00;;;;;;4987664;28;20211;-44
2021/12/28 06:33:34;;;;;;;4.53;3.83;;;22.80;51.80;;;;;;4987928;28;20276;-51
2021/12/28 06:36:05;;;;;;;5.40;4.20;;;22.80;51.90;;;;;;4988823;28;21645;-50
2021/12/28 06:38:38;;;;;;;5.00;4.05;;;22.80;51.80;;;;;;4989085;28;20252;-47
2021/12/28 06:41:08;;;;;;;4.63;3.97;;;22.70;51.70;;;;;;4989275;28;20300;-45
2021/12/28 06:43:39;;;;;;;5.38;4.03;;;22.80;51.80;;;;;;4988155;28;20244;-43
2021/12/28 06:46:10;;;;;;;4.00;3.60;;;22.70;51.80;;;;;;4988702;28;20289;-53
2021/12/28 06:48:40;;;;;;;4.30;3.47;;;22.70;51.80;;;;;;4988396;28;20256;-44
2021/12/28 06:51:11;;;;;;;4.18;3.30;;;22.70;51.70;;;;;;4988268;28;20280;-47
2021/12/28 06:53:44;;;;;;;4.00;3.60;;;22.70;51.70;;;;;;4990936;28;20206;-55
2021/12/28 06:56:14;;;;;;;3.90;3.50;;;22.70;51.70;;;;;;4987954;28;20861;-55
2021/12/28 06:58:45;;;;;;;5.20;3.72;;;22.70;51.70;;;;;;4988618;28;20313;-57
2021/12/28 07:01:15;;;;;;;4.50;3.58;;;22.70;51.80;;;;;;4988494;28;20941;-47
2021/12/28 07:03:46;;;;;;;5.82;3.92;;;22.60;51.70;;;;;;4988904;28;20292;-39
2021/12/28 07:06:16;;;;;;;5.43;3.70;;;22.60;51.80;;;;;;4988289;28;20293;-56
2021/12/28 07:08:49;;;;;;;4.95;3.78;;;22.60;51.80;;;;;;4987607;28;20228;-52
2021/12/28 07:11:19;;;;;;;4.05;3.55;;;22.70;51.90;;;;;;4988114;28;20733;-43
2021/12/28 07:13:50;;;;;;;5.95;3.80;;;22.60;51.90;;;;;;4988072;28;20289;-50
2021/12/28 07:16:21;;;;;;;6.93;3.50;;;22.60;51.90;;;;;;4988369;28;20722;-54
2021/12/28 07:18:51;;;;;;;6.15;3.60;;;22.60;51.80;;;;;;4988078;28;20221;-49
2021/12/28 07:21:21;;;;;;;5.53;4.00;;;22.60;51.80;;;;;;4987697;28;20309;-45
2021/12/28 07:23:54;;;;;;;5.68;3.90;;;22.60;51.80;;;;;;4981282;28;20629;-43
2021/12/28 07:26:24;;;;;;;3.45;3.13;;;22.50;51.80;;;;;;4987152;28;20228;-48
2021/12/28 07:28:55;;;;;;;3.80;3.10;;;22.60;51.80;;;;;;4987885;28;20300;-39
2021/12/28 07:31:25;;;;;;;3.75;3.28;;;22.60;51.80;;;;;;4988575;28;20213;-42
2021/12/28 07:33:56;;;;;;;4.32;3.10;;;22.50;51.80;;;;;;4988327;28;20280;-51
2021/12/28 07:36:26;;;;;;;4.55;3.50;;;22.50;51.80;;;;;;4988677;28;20233;-50
2021/12/28 07:38:59;;;;;;;3.88;3.20;;;22.50;52.40;;;;;;4987060;28;20305;-47
2021/12/28 07:41:29;;;;;;;4.10;3.20;;;22.50;51.80;;;;;;4987791;28;20244;-56
2021/12/28 07:44:00;;;;;;;4.25;3.10;;;22.50;51.80;;;;;;4987714;28;20308;-45
2021/12/28 07:46:30;;;;;;;4.15;3.20;;;22.50;51.80;;;;;;4988280;28;20284;-46
2021/12/28 07:49:01;;;;;;;3.70;2.95;;;22.50;51.80;;;;;;4988299;28;20789;-60
2021/12/28 07:51:31;;;;;;;5.53;3.05;;;22.50;51.80;;;;;;4988520;28;20945;-56
2021/12/28 07:54:04;;;;;;;4.32;3.20;;;22.50;51.80;;;;;;4987755;28;20839;-44
2021/12/28 07:56:34;;;;;;;3.67;2.90;;;22.50;51.80;;;;;;4982857;28;20204;-50
2021/12/28 07:59:05;;;;;;;4.00;3.00;;;22.50;51.70;;;;;;4991840;28;20296;-42
2021/12/28 08:01:36;;;;;;;3.78;2.75;;;22.40;51.70;;;;;;4991800;28;20229;-55
2021/12/28 08:04:06;;;;;;;4.20;2.72;;;22.40;51.70;;;;;;4992133;28;20284;-53
2021/12/28 08:06:37;;;;;;;3.15;2.53;;;22.40;51.70;;;;;;4992404;28;20225;-44
2021/12/28 08:09:09;;;;;;;4.22;2.97;;;22.40;51.80;;;;;;4991556;28;20308;-47
2021/12/28 08:11:40;;;;;;;4.03;2.80;;;22.40;51.70;;;;;;4991139;28;20296;-49
2021/12/28 08:14:11;;;;;;;3.30;2.72;;;22.40;51.80;;;;;;4990988;28;20205;-37
2021/12/28 08:16:41;;;;;;;3.55;2.65;;;22.40;51.80;;;;;;4990234;28;20296;-37
2021/12/28 08:19:12;;;;;;;3.78;2.47;;;22.40;51.80;;;;;;4991181;28;20225;-46
2021/12/28 08:21:42;;;;;;;3.90;2.70;;;22.40;51.80;;;;;;4991171;28;20304;-45
2021/12/28 08:24:15;;;;;;;3.50;2.60;;;22.40;51.90;;;;;;4991636;28;20280;-40
2021/12/28 08:26:45;;;;;;;3.42;2.50;;;22.30;51.90;;;;;;4987914;28;20206;-38
2021/12/28 08:29:16;;;;;;;3.67;2.45;;;22.30;51.90;;;;;;4990085;28;20312;-40
2021/12/28 08:31:46;;;;;;;3.08;2.40;;;22.30;51.80;;;;;;4990830;28;20626;-40
2021/12/28 08:34:17;;;;;;;3.58;2.45;;;22.30;51.90;;;;;;4989483;28;20308;-45
2021/12/28 08:36:47;;;;;;;2.78;2.20;;;22.30;51.90;;;;;;4990506;28;20328;-57
2021/12/28 08:39:20;;;;;;;4.15;2.17;;;22.30;51.80;;;;;;4990878;28;20304;-53
2021/12/28 08:41:50;;;;;;;2.78;2.10;;;22.30;51.80;;;;;;4990571;28;20232;-52
2021/12/28 08:44:21;;;;;;;3.25;2.30;;;22.30;51.80;;;;;;4990276;28;20288;-37
2021/12/28 08:46:51;;;;;;;3.40;2.45;;;22.30;51.80;;;;;;4989873;28;20300;-37
2021/12/28 08:49:22;;;;;;;2.08;1.85;;;22.30;51.80;;;;;;4990380;28;20263;-37
2021/12/28 08:51:53;;;;;;;2.58;2.15;;;22.30;51.80;;;;;;4989453;28;20288;-37
2021/12/28 08:54:25;;;;;;;2.72;2.05;;;22.30;51.80;;;;;;4989599;28;20850;-37
2021/12/28 08:56:56;;;;;;;3.55;2.50;;;22.30;51.80;;;;;;4990311;28;20289;-41
2021/12/28 08:59:26;;;;;;;2.33;1.95;;;22.20;51.70;;;;;;4989847;28;20312;-47
2021/12/28 09:01:57;;;;;;;2.40;2.17;;;22.20;51.70;;;;;;4989571;28;20308;-49
2021/12/28 09:04:27;;;;;;;1.88;1.77;;;22.20;51.80;;;;;;4989438;28;20217;-47
2021/12/28 09:06:59;;;;;;;2.45;2.03;;;22.20;51.80;;;;;;4990552;28;20281;-40
2021/12/28 09:09:31;;;;;;;2.55;2.17;;;22.20;51.80;;;;;;4988751;28;20776;-44
2021/12/28 09:12:02;;;;;;;2.90;2.22;;;22.20;51.80;;;;;;4990723;28;20284;-38
2021/12/28 09:14:32;;;;;;;4.05;2.13;;;22.20;51.80;;;;;;4990317;28;20289;-37
2021/12/28 09:17:03;;;;;;;2.53;2.08;;;22.20;51.80;;;;;;4988833;28;20552;-41
2021/12/28 09:19:33;;;;;;;2.13;1.70;;;22.20;51.90;;;;;;4988301;28;20303;-37
2021/12/28 09:22:04;;;;;;;2.22;1.98;;;22.20;51.80;;;;;;4989364;28;20228;-51
2021/12/28 09:24:37;;;;;;;2.42;1.88;;;22.10;51.80;;;;;;4989371;28;20324;-41
2021/12/28 09:27:08;;;;;;;2.72;2.15;;;22.10;51.80;;;;;;4989693;28;20280;-45
2021/12/28 09:29:42;;;;;;;2.53;1.77;;;22.10;51.70;;;;;;4989957;28;20302;-48
2021/12/28 09:32:13;;;;;;;2.08;1.80;;;22.10;51.80;;;;;;4990503;28;20200;-37
2021/12/28 09:34:45;;;;;;;2.22;1.90;;;22.10;51.70;;;;;;4989072;28;20604;-37
2021/12/28 09:37:16;;;;;;;3.05;1.90;;;22.10;51.80;;;;;;4989805;28;20293;-50
2021/12/28 09:39:49;;;;;;;2.15;1.90;;;22.10;51.80;;;;;;4989132;28;20317;-37
2021/12/28 09:42:20;;;;;;;2.20;1.70;;;22.10;51.70;;;;;;4989095;28;20218;-44
2021/12/28 09:44:51;;;;;;;3.17;1.65;;;22.10;51.80;;;;;;4989869;28;20296;-38
2021/12/28 09:47:22;;;;;;;2.58;1.50;;;22.10;51.80;;;;;;4988933;28;20189;-42
2021/12/28 09:49:53;;;;;;;2.47;1.70;;;22.00;51.70;;;;;;4989314;28;20312;-40
2021/12/28 09:52:23;;;;;;;3.13;1.75;;;22.10;51.80;;;;;;4989774;28;20291;-47
2021/12/28 09:54:55;;;;;;;2.28;1.75;;;22.00;51.70;;;;;;4989137;28;20665;-43
2021/12/28 09:57:28;;;;;;;2.28;1.80;;;22.00;51.80;;;;;;4989119;28;20289;-52
2021/12/28 09:59:59;;;;;;;1.80;1.42;;;22.00;51.80;;;;;;4987199;28;20280;-59
2021/12/28 10:02:30;;;;;;;1.67;1.58;;;22.00;51.70;;;;;;4989539;28;20225;-46
2021/12/28 10:05:04;;;;;;;2.05;1.75;;;22.00;51.70;;;;;;4989916;28;20288;-47
2021/12/28 10:07:37;;;;;;;2.63;1.75;;;22.00;51.70;;;;;;4988789;28;20232;-56
2021/12/28 10:10:11;;;;;;;1.85;1.52;;;22.00;51.70;;;;;;4989726;28;20297;-57
2021/12/28 10:12:44;;;;;;;2.72;1.80;;;22.00;51.70;;;;;;4988692;28;20280;-47
2021/12/28 10:15:16;;;;;;;2.65;1.60;;;22.00;51.70;;;;;;4989134;28;20224;-38
2021/12/28 10:17:49;;;;;;;2.28;1.50;;;22.00;51.70;;;;;;4988810;28;20630;-48
2021/12/28 10:20:22;;;;;;;2.35;1.70;;;21.90;51.70;;;;;;4988996;28;20910;-48
2021/12/28 10:22:54;;;;;;;2.80;1.95;;;21.90;51.70;;;;;;4989896;28;20312;-39
2021/12/28 10:25:29;;;;;;;1.58;1.38;;;21.90;51.70;;;;;;4988825;28;20289;-38
2021/12/28 10:28:01;;;;;;;2.00;1.33;;;21.90;52.30;;;;;;4988720;28;20241;-38
2021/12/28 10:30:33;;;;;;;2.28;1.60;;;21.90;51.60;;;;;;4988128;28;20695;-41
2021/12/28 10:33:06;;;;;;;1.95;1.52;;;21.90;51.60;;;;;;4988733;28;20202;-37
2021/12/28 10:35:39;;;;;;;2.13;1.63;;;21.90;51.70;;;;;;4987908;28;20308;-38
2021/12/28 10:38:12;;;;;;;1.85;1.63;;;21.90;51.70;;;;;;4988919;28;20224;-39
2021/12/28 10:40:47;;;;;;;1.60;1.42;;;21.90;51.70;;;;;;4988295;28;20299;-37
2021/12/28 10:43:19;;;;;;;2.83;1.95;;;21.80;51.70;;;;;;4987753;28;20311;-39
2021/12/28 10:45:54;;;;;;;2.90;1.70;;;21.90;51.70;;;;;;4980162;28;20651;-54
2021/12/28 10:48:27;;;;;;;2.15;1.40;;;21.80;51.70;;;;;;4984102;28;20204;-48
2021/12/28 10:51:02;;;;;;;2.53;1.70;;;21.80;51.70;;;;;;4988322;28;20202;-43
2021/12/28 10:53:37;;;;;;;2.20;1.63;;;21.80;51.70;;;;;;4987219;28;20221;-49
2021/12/28 10:56:11;;;;;;;1.95;1.45;;;21.80;51.70;;;;;;4990170;28;20215;-50
2021/12/28 10:58:42;;;;;;;1.67;1.55;;;21.80;51.70;;;;;;4972949;28;20786;-44
2021/12/28 11:01:17;;;;;;;1.98;1.50;;;21.80;51.70;;;;;;4988439;28;20292;-58
2021/12/28 11:03:49;;;;;;;1.70;1.42;;;21.80;51.70;;;;;;4987015;28;20817;-48
2021/12/28 11:06:25;;;;;;;2.63;1.50;;;21.80;51.70;;;;;;4988206;28;20287;-50
2021/12/28 11:08:57;;;;;;;2.35;1.70;;;21.80;51.70;;;;;;4988662;28;20311;-50
2021/12/28 11:11:30;;;;;;;1.60;1.20;;;21.80;51.70;;;;;;4988502;28;20285;-50
2021/12/28 11:14:02;;;;;;;1.80;1.58;;;21.70;51.60;;;;;;4987481;28;20689;-54
2021/12/28 11:16:33;;;;;;;1.70;1.30;;;21.70;51.70;;;;;;4990168;28;20289;-46
2021/12/28 11:19:06;;;;;;;2.13;1.40;;;21.70;51.60;;;;;;4988715;28;20304;-47
2021/12/28 11:21:40;;;;;;;1.55;1.45;;;21.70;51.60;;;;;;4988385;28;20288;-53
2021/12/28 11:24:13;;;;;;;1.85;1.33;;;21.70;51.60;;;;;;4987013;28;20304;-52
2021/12/28 11:26:47;;;;;;;2.10;1.38;;;21.70;51.60;;;;;;4984548;28;20194;-45
2021/12/28 11:29:21;;;;;;;1.77;1.40;;;21.70;51.70;;;;;;4977145;28;20771;-50
2021/12/28 11:31:53;;;;;;;1.50;1.10;;;21.70;51.70;;;;;;5001734;28;20204;-41
2021/12/28 11:34:25;;;;;;;2.08;1.40;;;21.70;51.70;;;;;;4980378;28;20237;-38
2021/12/28 11:36:58;;;;;;;1.67;1.27;;;21.70;51.70;;;;;;4987741;28;20280;-37
2021/12/28 11:39:31;;;;;;;1.90;1.35;;;21.70;51.70;;;;;;4988071;28;20771;-51
2021/12/28 11:42:05;;;;;;;1.50;1.40;;;21.70;51.70;;;;;;4987058;28;20292;-48
2021/12/28 11:44:35;;;;;;;1.40;1.30;;;21.60;51.60;;;;;;4989518;28;20226;-51
2021/12/28 11:47:08;;;;;;;1.40;1.23;;;21.60;51.60;;;;;;4998818;28;20200;-44
2021/12/28 11:49:40;;;;;;;1.70;1.25;;;21.60;51.70;;;;;;4987924;28;20300;-53
2021/12/28 11:52:13;;;;;;;1.40;1.30;;;21.60;51.60;;;;;;4988828;28;20276;-49
2021/12/28 11:54:46;;;;;;;1.58;1.20;;;21.60;51.60;;;;;;4985257;28;20292;-50
2021/12/28 11:57:21;;;;;;;1.63;1.17;;;21.60;51.60;;;;;;4975052;28;20297;-50
2021/12/28 11:59:54;;;;;;;2.22;1.30;;;21.60;51.60;;;;;;4985524;28;20218;-44
2021/12/28 12:02:39;;;;;;;1.23;1.10;;;21.60;51.60;;;;;;4994712;28;20297;-51
2021/12/28 12:05:19;;;;;;;1.35;1.02;;;21.60;52.20;;;;;;4987347;28;20197;-48
2021/12/28 12:08:04;;;;;;;1.55;1.45;;;21.60;51.60;;;;;;4987410;28;20297;-50
2021/12/28 12:10:36;;;;;;;2.03;1.30;;;21.60;51.60;;;;;;4987563;28;20210;-49
2021/12/28 12:13:22;;;;;;;1.33;1.15;;;21.60;51.60;;;;;;4973225;28;20661;-47
2021/12/28 12:15:55;;;;;;;2.42;1.30;;;21.60;51.60;;;;;;4997480;28;20201;-40
2021/12/28 12:18:29;;;;;;;1.30;1.15;;;21.50;51.60;;;;;;4987902;28;20292;-50
2021/12/28 12:21:06;;;;;;;1.27;1.10;;;21.50;51.60;;;;;;4986513;28;20684;-55
2021/12/28 12:23:48;;;;;;;1.77;1.10;;;21.50;51.60;;;;;;4985809;28;20244;-50
2021/12/28 12:26:29;;;;;;;1.67;1.20;;;21.50;51.60;;;;;;4980292;28;20285;-45
2021/12/28 12:29:02;;;;;;;1.30;1.10;;;21.50;51.70;;;;;;4979218;28;20308;-54
2021/12/28 12:31:36;;;;;;;1.10;1.00;;;21.50;51.60;;;;;;4994297;28;20294;-56
2021/12/28 12:34:28;;;;;;;1.50;1.10;;;21.50;51.90;;;;;;4988154;28;20204;-54
2021/12/28 12:36:58;;;;;;;1.10;1.00;;;21.50;51.60;;;;;;4972272;28;20202;-51
2021/12/28 12:39:40;;;;;;;1.60;1.10;;;21.50;51.60;;;;;;4988362;28;20310;-58
2021/12/28 12:42:14;;;;;;;1.85;1.00;;;21.40;51.50;;;;;;4973785;28;20624;-57
2021/12/28 12:44:47;;;;;;;1.67;0.98;;;21.50;51.60;;;;;;4989121;28;20228;-56
2021/12/28 12:47:17;;;;;;;1.60;1.05;;;21.40;51.50;;;;;;4986626;28;20740;-48
2021/12/28 12:49:48;;;;;;;2.53;0.98;;;21.40;51.50;;;;;;4989302;28;20300;-45
2021/12/28 12:52:20;;;;;;;1.00;0.90;;;21.40;51.50;;;;;;4990931;28;20284;-47
2021/12/28 12:54:52;;;;;;;1.50;1.10;;;21.40;51.60;;;;;;4991444;28;20213;-49
2021/12/28 12:57:27;;;;;;;1.73;0.95;;;21.40;51.50;;;;;;4992510;28;20682;-55
2021/12/28 13:00:13;;;;;;;1.13;0.90;;;21.40;51.60;;;;;;4991059;28;20217;-42
2021/12/28 13:02:44;;;;;;;1.45;1.02;;;21.40;51.60;;;;;;4984015;28;20252;-55
2021/12/28 13:05:18;;;;;;;1.48;1.08;;;21.40;51.50;;;;;;4989072;28;20284;-54
2021/12/28 13:07:48;;;;;;;1.38;1.17;;;21.40;51.50;;;;;;4988665;28;20288;-60
2021/12/28 13:10:26;;;;;;;1.55;1.13;;;21.40;51.50;;;;;;4991658;28;20405;-55
2021/12/28 13:12:58;;;;;;;1.27;0.88;;;21.40;51.60;;;;;;4990461;28;20201;-51